Time;durP1;ratioP1;P1;durP2;ratioP2;P2;SDS_P1;SDS_P2;PMS_P1;PMS_P2;Temp;Humidity;BMP_temperature;BMP_pressure;BME280_temperature;BME280_humidity;BME280_pressure;Samples;Min_cycle;Max_cycle;Signal;HPM_P1;HPM_P2
2024/01/25 00:00:28;;;;;;;0.88;0.88;;;;;;;6.41;80.93;99949.53;5115609;27;20059;-70
2024/01/25 00:02:57;;;;;;;4.50;1.80;;;;;;;6.50;80.25;99948.88;5072082;28;20548;-70
2024/01/25 00:05:26;;;;;;;0.20;0.20;;;;;;;6.50;80.35;99949.69;5074305;28;20273;-70
2024/01/25 00:07:55;;;;;;;0.30;0.30;;;;;;;6.55;79.94;99950.66;5074090;28;20056;-70
2024/01/25 00:10:24;;;;;;;0.20;0.20;;;;;;;6.54;79.77;99946.41;5074248;28;20510;-70
2024/01/25 00:12:54;;;;;;;3.35;1.73;;;;;;;6.56;79.66;99939.69;5073890;28;20044;-70
2024/01/25 00:15:24;;;;;;;11.70;0.95;;;;;;;6.57;79.23;99941.41;5074487;28;20048;-71
2024/01/25 00:17:53;;;;;;;0.30;0.30;;;;;;;6.59;79.33;99934.69;5056285;28;20144;-70
2024/01/25 00:20:22;;;;;;;0.23;0.23;;;;;;;6.63;79.26;99944.06;5073874;28;20125;-71
2024/01/25 00:22:51;;;;;;;0.20;0.20;;;;;;;6.69;78.53;99930.66;5074194;28;20378;-71
2024/01/25 00:25:20;;;;;;;0.87;0.87;;;;;;;6.68;78.89;99934.84;5073427;28;20063;-71
2024/01/25 00:27:49;;;;;;;0.30;0.30;;;;;;;6.71;77.98;99929.84;5073829;28;20075;-71
2024/01/25 00:30:18;;;;;;;0.47;0.47;;;;;;;6.75;78.31;99941.75;5072770;28;20044;-71
2024/01/25 00:32:50;;;;;;;0.20;0.20;;;;;;;6.72;77.84;99941.69;5056051;28;20094;-71
2024/01/25 00:35:19;;;;;;;0.30;0.30;;;;;;;6.69;78.43;99923.88;5073643;28;20048;-70
2024/01/25 00:37:49;;;;;;;0.30;0.30;;;;;;;6.66;77.92;99935.66;5073963;28;20044;-70
2024/01/25 00:40:18;;;;;;;0.20;0.20;;;;;;;6.70;77.92;99927.25;5072611;28;20037;-71
2024/01/25 00:42:52;;;;;;;;;;;;;;;6.72;77.81;99921.38;5074019;28;20060;-70
2024/01/25 00:45:23;;;;;;;1.55;1.05;;;;;;;6.72;78.02;99921.38;5073889;28;19982;-70
2024/01/25 00:47:53;;;;;;;;;;;;;;;6.80;77.77;99913.06;5074542;28;20033;-70
2024/01/25 00:50:23;;;;;;;0.30;0.30;;;;;;;6.44;77.21;99858.34;5073834;28;19920;-70
2024/01/25 00:52:54;;;;;;;3.88;1.90;;;;;;;6.80;76.86;99918.13;5072367;28;20062;-71
2024/01/25 00:55:24;;;;;;;1.10;0.82;;;;;;;6.81;77.83;99919.84;5073523;28;20032;-70
2024/01/25 00:57:54;;;;;;;1.33;0.85;;;;;;;6.80;77.22;99910.53;5074053;28;20153;-71
2024/01/25 01:00:24;;;;;;;0.30;0.30;;;;;;;6.82;76.74;99913.94;5073736;28;20045;-70
2024/01/25 01:02:58;;;;;;;2.38;1.08;;;;;;;6.83;77.03;99915.66;5073552;28;20090;-70
2024/01/25 01:05:28;;;;;;;0.88;0.50;;;;;;;6.79;76.30;99918.97;5073788;28;20598;-70
2024/01/25 01:07:58;;;;;;;0.35;0.35;;;;;;;6.82;76.44;99901.25;5073565;28;20043;-70
2024/01/25 01:10:27;;;;;;;;;;;;;;;6.88;75.77;99912.41;5074323;28;20056;-70
2024/01/25 01:12:56;;;;;;;0.30;0.30;;;;;;;6.89;76.52;99903.06;5073314;28;19928;-70
2024/01/25 01:15:25;;;;;;;1.10;1.10;;;;;;;6.87;75.92;99912.34;5073595;28;20043;-70
2024/01/25 01:17:55;;;;;;;0.33;0.33;;;;;;;6.90;75.25;99915.81;5073464;28;20036;-70
2024/01/25 01:20:24;;;;;;;0.73;0.73;;;;;;;6.92;75.86;99903.13;5073570;28;20274;-70
2024/01/25 01:22:54;;;;;;;0.20;0.20;;;;;;;6.91;75.10;99916.66;5073364;28;20033;-70
2024/01/25 01:25:22;;;;;;;0.55;0.55;;;;;;;6.86;75.88;99908.13;5073412;28;20032;-69
2024/01/25 01:27:51;;;;;;;1.43;1.33;;;;;;;6.88;75.28;99914.06;5073392;28;20047;-70
2024/01/25 01:30:20;;;;;;;0.30;0.30;;;;;;;6.83;74.95;99911.44;5073924;28;20136;-72
2024/01/25 01:32:49;;;;;;;0.40;0.40;;;;;;;6.80;75.14;99908.00;5073398;28;20033;-69
2024/01/25 01:35:20;;;;;;;0.82;0.45;;;;;;;6.72;75.11;99905.31;5073321;28;20127;-69
2024/01/25 01:37:49;;;;;;;0.38;0.38;;;;;;;6.66;75.07;99895.94;5072032;28;20060;-71
2024/01/25 01:40:18;;;;;;;0.23;0.23;;;;;;;6.70;75.92;99897.69;5073018;28;20398;-68
2024/01/25 01:42:48;;;;;;;1.08;0.98;;;;;;;6.67;75.23;99892.56;5072884;28;20048;-72
2024/01/25 01:45:18;;;;;;;1.02;0.98;;;;;;;6.62;74.93;99884.00;5073580;28;20044;-69
2024/01/25 01:47:47;;;;;;;6.43;1.37;;;;;;;6.72;75.05;99898.56;5071647;28;20052;-69
2024/01/25 01:50:17;;;;;;;;;;;;;;;6.75;75.08;99891.03;5073303;28;20498;-69
2024/01/25 01:52:48;;;;;;;0.50;0.50;;;;;;;6.79;74.72;99891.09;5073215;28;19924;-71
2024/01/25 01:55:18;;;;;;;0.75;0.75;;;;;;;6.84;75.26;99874.25;5072280;28;20105;-71
2024/01/25 01:57:48;;;;;;;0.30;0.30;;;;;;;6.92;74.70;99882.84;5071936;28;20056;-72
2024/01/25 02:00:17;;;;;;;0.77;0.77;;;;;;;6.97;74.42;99878.69;5072940;28;20053;-71
2024/01/25 02:02:47;;;;;;;0.47;0.47;;;;;;;7.01;73.72;99872.84;5072911;28;20040;-72
2024/01/25 02:05:16;;;;;;;0.30;0.30;;;;;;;7.05;73.27;99864.47;5076684;28;20044;-72
2024/01/25 02:07:45;;;;;;;0.73;0.73;;;;;;;7.00;73.05;99868.63;5076621;28;20037;-70
2024/01/25 02:10:16;;;;;;;0.30;0.30;;;;;;;7.06;72.67;99866.16;5076625;28;20040;-69
2024/01/25 02:12:45;;;;;;;0.40;0.40;;;;;;;7.04;72.71;99862.75;5076623;28;20040;-70
2024/01/25 02:15:13;;;;;;;0.30;0.30;;;;;;;7.04;73.28;99880.50;5076882;28;20135;-69
2024/01/25 02:17:43;;;;;;;0.32;0.32;;;;;;;7.07;73.50;99867.88;5076490;28;20056;-70
2024/01/25 02:20:12;;;;;;;0.75;0.73;;;;;;;7.09;72.84;99861.13;5076394;28;20044;-72
2024/01/25 02:22:43;;;;;;;0.90;0.90;;;;;;;7.06;72.54;99871.22;5075988;28;20033;-70
2024/01/25 02:25:12;;;;;;;0.20;0.20;;;;;;;7.01;73.19;99873.69;5076414;28;20045;-72
2024/01/25 02:27:41;;;;;;;1.00;1.00;;;;;;;6.98;72.79;99867.75;5076058;28;20034;-72
2024/01/25 02:30:10;;;;;;;0.20;0.20;;;;;;;6.97;73.38;99871.09;5076243;28;20040;-72
2024/01/25 02:32:39;;;;;;;0.32;0.32;;;;;;;7.03;73.50;99861.88;5076836;28;20425;-71
2024/01/25 02:35:08;;;;;;;0.32;0.32;;;;;;;7.04;73.23;99857.66;5076194;28;20043;-72
2024/01/25 02:37:37;;;;;;;0.25;0.25;;;;;;;7.03;73.13;99861.06;5076222;28;20086;-72
2024/01/25 02:40:09;;;;;;;0.50;0.50;;;;;;;7.01;73.71;99863.56;5076052;28;20044;-70
2024/01/25 02:42:38;;;;;;;1.95;0.50;;;;;;;7.02;73.15;99846.66;5076074;28;20109;-70
2024/01/25 02:45:08;;;;;;;0.20;0.20;;;;;;;7.04;73.16;99852.59;5074582;28;20036;-71
2024/01/25 02:47:37;;;;;;;0.30;0.30;;;;;;;7.01;73.32;99858.47;5074497;28;20075;-71
2024/01/25 02:50:07;;;;;;;4.05;1.65;;;;;;;6.98;73.41;99867.75;5075021;28;20452;-71
2024/01/25 02:52:36;;;;;;;3.50;0.70;;;;;;;6.97;73.17;99871.94;5075650;28;20044;-71
2024/01/25 02:55:07;;;;;;;0.30;0.30;;;;;;;7.04;73.63;99870.34;5076332;28;20044;-71
2024/01/25 02:57:36;;;;;;;1.35;0.75;;;;;;;7.06;72.74;99871.22;5076071;28;20036;-71
2024/01/25 03:00:06;;;;;;;1.40;1.30;;;;;;;7.09;72.31;99873.81;5074094;28;20052;-71
2024/01/25 03:02:35;;;;;;;0.43;0.43;;;;;;;7.06;73.25;99866.16;5075505;28;20063;-71
2024/01/25 03:05:05;;;;;;;0.30;0.30;;;;;;;7.09;72.84;99866.22;5075268;28;20055;-71
2024/01/25 03:07:33;;;;;;;;;;;;;;;7.10;72.42;99873.00;5075663;28;20045;-70
2024/01/25 03:10:02;;;;;;;0.32;0.32;;;;;;;7.05;73.00;99874.63;5075197;28;20251;-71
2024/01/25 03:12:33;;;;;;;0.40;0.40;;;;;;;7.03;73.12;99871.22;5075133;28;20091;-72
2024/01/25 03:15:02;;;;;;;0.30;0.30;;;;;;;7.04;72.66;99872.91;5075149;28;20047;-71
2024/01/25 03:17:33;;;;;;;0.55;0.55;;;;;;;7.06;72.54;99877.16;5074169;28;20052;-71
2024/01/25 03:20:02;;;;;;;0.20;0.20;;;;;;;7.06;71.98;99873.78;5075268;28;20514;-71
2024/01/25 03:22:31;;;;;;;0.20;0.20;;;;;;;7.05;73.10;99885.63;5075197;28;20037;-71
2024/01/25 03:25:00;;;;;;;0.47;0.43;;;;;;;7.03;72.66;99881.34;5074881;28;20101;-71
2024/01/25 03:27:29;;;;;;;0.23;0.23;;;;;;;6.98;72.67;99872.81;5073557;28;20495;-70
2024/01/25 03:29:59;;;;;;;1.33;1.02;;;;;;;7.01;72.96;99877.91;5075682;28;20037;-71
2024/01/25 03:32:28;;;;;;;0.75;0.75;;;;;;;7.04;72.75;99862.75;5074880;28;20045;-71
2024/01/25 03:35:00;;;;;;;0.40;0.40;;;;;;;7.07;72.99;99872.94;5075081;28;20076;-71
2024/01/25 03:37:29;;;;;;;4.55;0.80;;;;;;;7.05;72.41;99875.47;5075021;28;20044;-71
2024/01/25 03:39:58;;;;;;;0.50;0.50;;;;;;;7.02;72.37;99879.63;5074623;28;20485;-71
2024/01/25 03:42:27;;;;;;;1.03;0.93;;;;;;;7.01;72.11;99875.38;5074977;28;20289;-71
2024/01/25 03:44:56;;;;;;;20.20;1.37;;;;;;;6.97;72.26;99871.94;5074369;28;20051;-72
2024/01/25 03:47:26;;;;;;;2.25;2.05;;;;;;;6.97;72.44;99871.94;5074661;28;20047;-71
2024/01/25 03:49:56;;;;;;;0.85;0.85;;;;;;;6.96;72.37;99874.47;5074771;28;20052;-71
2024/01/25 03:52:25;;;;;;;0.22;0.22;;;;;;;6.95;72.02;99877.81;5056424;28;20135;-71
2024/01/25 03:54:54;;;;;;;0.35;0.35;;;;;;;6.93;71.60;99887.09;5073444;28;20041;-71
2024/01/25 03:57:22;;;;;;;0.50;0.50;;;;;;;6.93;71.84;99889.63;5074525;28;20039;-72
2024/01/25 03:59:52;;;;;;;1.17;0.85;;;;;;;6.95;71.90;99882.91;5074771;28;20052;-72
2024/01/25 04:02:20;;;;;;;0.30;0.30;;;;;;;6.94;72.14;99886.25;5074401;28;20115;-71
2024/01/25 04:04:51;;;;;;;1.13;1.02;;;;;;;6.95;72.03;99885.44;5073820;28;20048;-72
2024/01/25 04:07:20;;;;;;;0.28;0.28;;;;;;;6.92;71.55;99887.91;5074345;28;20502;-71
2024/01/25 04:09:50;;;;;;;0.73;0.73;;;;;;;6.90;71.43;99889.56;5074312;28;20044;-71
2024/01/25 04:12:19;;;;;;;35.80;1.10;;;;;;;6.89;72.40;99881.09;5074259;28;20269;-71
2024/01/25 04:14:48;;;;;;;0.30;0.30;;;;;;;6.90;71.57;99892.13;5072995;28;20135;-71
2024/01/25 04:17:19;;;;;;;0.98;0.98;;;;;;;6.91;72.08;99883.69;5074317;28;20098;-71
2024/01/25 04:19:48;;;;;;;1.10;0.90;;;;;;;6.94;72.40;99882.03;5074197;28;20045;-72
2024/01/25 04:22:18;;;;;;;0.47;0.47;;;;;;;6.93;72.29;99876.94;5074107;28;20049;-71
2024/01/25 04:24:49;;;;;;;1.25;0.98;;;;;;;6.95;72.30;99890.50;5074188;28;20049;-71
2024/01/25 04:27:18;;;;;;;0.20;0.20;;;;;;;6.93;72.62;99889.63;5073690;28;20045;-71
2024/01/25 04:29:47;;;;;;;0.33;0.33;;;;;;;6.95;72.35;99895.59;5074401;28;20043;-71
2024/01/25 04:32:16;;;;;;;;;;;;;;;6.91;71.68;99911.59;5074388;28;20280;-71
2024/01/25 04:34:47;;;;;;;2.63;1.05;;;;;;;6.90;71.62;99909.88;5074150;28;20282;-72
2024/01/25 04:37:18;;;;;;;0.88;0.88;;;;;;;6.90;72.05;99910.72;5073978;28;20056;-72
2024/01/25 04:39:48;;;;;;;5.82;2.50;;;;;;;6.89;72.07;99920.84;5073657;28;20131;-71
2024/01/25 04:42:18;;;;;;;0.22;0.22;;;;;;;6.91;72.52;99906.53;5072860;28;20048;-71
2024/01/25 04:44:47;;;;;;;0.27;0.27;;;;;;;6.92;72.23;99913.28;5073640;28;20486;-72
2024/01/25 04:47:15;;;;;;;0.33;0.33;;;;;;;6.89;71.46;99915.75;5074125;28;20058;-71
2024/01/25 04:49:44;;;;;;;1.10;0.98;;;;;;;6.93;72.41;99920.09;5073808;28;20441;-71
2024/01/25 04:52:13;;;;;;;1.67;1.58;;;;;;;6.89;71.51;99923.38;5073886;28;20032;-72
2024/01/25 04:54:43;;;;;;;0.57;0.57;;;;;;;6.85;72.31;99922.47;5071554;28;20045;-72
2024/01/25 04:57:13;;;;;;;2.00;1.42;;;;;;;6.80;72.03;99918.13;5073765;28;20044;-71
2024/01/25 04:59:41;;;;;;;14.40;0.85;;;;;;;6.81;71.76;99922.41;5073754;28;20048;-71
2024/01/25 05:02:10;;;;;;;0.40;0.40;;;;;;;6.77;72.12;99913.88;5073411;28;20048;-72
2024/01/25 05:04:39;;;;;;;1.05;0.88;;;;;;;6.81;72.39;99915.66;5072199;28;20063;-71
2024/01/25 05:07:14;;;;;;;0.75;0.75;;;;;;;6.78;72.39;99933.34;5073906;28;20048;-71
2024/01/25 05:09:44;;;;;;;4.13;2.35;;;;;;;6.71;72.39;99932.38;5073627;28;20041;-71
2024/01/25 05:12:13;;;;;;;3.92;3.60;;;;;;;6.72;72.92;99941.69;5073913;28;20589;-71
2024/01/25 05:14:42;;;;;;;0.60;0.60;;;;;;;6.73;72.64;99940.88;5073533;28;20048;-72
2024/01/25 05:17:11;;;;;;;0.63;0.63;;;;;;;6.74;72.88;99940.03;5073528;28;20041;-71
2024/01/25 05:19:40;;;;;;;1.30;1.20;;;;;;;6.83;72.62;99943.56;5073508;28;20040;-71
2024/01/25 05:22:09;;;;;;;1.38;1.27;;;;;;;6.84;72.39;99940.22;5073202;28;20037;-72
2024/01/25 05:24:38;;;;;;;0.20;0.20;;;;;;;6.87;72.41;99945.31;5071824;28;20037;-70
2024/01/25 05:27:08;;;;;;;2.00;1.38;;;;;;;6.85;72.52;99947.84;5073159;28;20033;-72
2024/01/25 05:29:37;;;;;;;1.80;1.67;;;;;;;6.83;71.99;99944.44;5073835;28;20052;-71
2024/01/25 05:32:06;;;;;;;2.20;0.50;;;;;;;6.82;72.32;99952.00;5073405;28;20075;-71
2024/01/25 05:34:35;;;;;;;1.67;1.58;;;;;;;6.79;72.56;99951.97;5073316;28;20048;-71
2024/01/25 05:37:04;;;;;;;1.25;0.88;;;;;;;6.79;73.01;99957.03;5072994;28;20037;-72
2024/01/25 05:39:34;;;;;;;6.97;2.20;;;;;;;6.65;72.66;99955.06;5075638;28;20051;-72
2024/01/25 05:42:02;;;;;;;;;;;;;;;6.61;73.07;99958.38;5077230;28;20076;-71
2024/01/25 05:44:33;;;;;;;0.85;0.80;;;;;;;6.61;72.97;99955.00;5076978;28;19920;-71
2024/01/25 05:47:01;;;;;;;0.43;0.43;;;;;;;6.58;72.77;99958.31;5077101;28;20518;-71
2024/01/25 05:49:30;;;;;;;0.80;0.80;;;;;;;6.51;73.68;99955.63;5077046;28;20028;-71
2024/01/25 05:51:59;;;;;;;0.20;0.20;;;;;;;6.45;73.88;99965.66;5076692;28;20106;-71
2024/01/25 05:54:28;;;;;;;3.00;2.25;;;;;;;6.43;73.69;99968.16;5076850;28;20047;-71
2024/01/25 05:56:57;;;;;;;0.20;0.20;;;;;;;6.48;74.17;99961.50;5076786;28;20033;-72
2024/01/25 05:59:26;;;;;;;0.57;0.57;;;;;;;6.47;74.05;99959.81;5077100;28;20509;-73
2024/01/25 06:01:56;;;;;;;0.30;0.30;;;;;;;6.39;74.09;99953.72;5076798;28;20046;-73
2024/01/25 06:04:25;;;;;;;1.60;1.25;;;;;;;6.32;73.88;99956.94;5076370;28;20308;-71
2024/01/25 06:06:54;;;;;;;0.30;0.30;;;;;;;6.36;74.03;99956.19;5076396;28;20044;-71
2024/01/25 06:09:25;;;;;;;0.90;0.80;;;;;;;6.33;74.49;99956.13;5075431;28;20071;-71
2024/01/25 06:11:54;;;;;;;0.30;0.30;;;;;;;6.32;74.54;99949.34;5075291;28;20044;-71
2024/01/25 06:14:23;;;;;;;1.85;1.40;;;;;;;6.30;74.60;99945.06;5076627;28;20043;-71
2024/01/25 06:16:52;;;;;;;0.30;0.30;;;;;;;6.33;74.16;99945.13;5076494;28;20068;-72
2024/01/25 06:19:22;;;;;;;1.05;1.05;;;;;;;6.39;74.25;99946.09;5076409;28;20044;-71
2024/01/25 06:21:51;;;;;;;0.30;0.30;;;;;;;6.29;74.03;99946.75;5076403;28;20056;-72
2024/01/25 06:24:20;;;;;;;0.32;0.32;;;;;;;6.16;74.40;99942.25;5076166;28;20074;-71
2024/01/25 06:26:49;;;;;;;0.40;0.40;;;;;;;6.00;74.17;99914.88;5074819;28;20127;-71
2024/01/25 06:29:18;;;;;;;0.40;0.40;;;;;;;6.15;74.86;99939.66;5076293;28;20135;-71
2024/01/25 06:31:47;;;;;;;0.97;0.97;;;;;;;6.16;74.89;99916.91;5076353;28;20494;-71
2024/01/25 06:34:15;;;;;;;0.52;0.52;;;;;;;6.24;74.62;99935.66;5075926;28;20498;-71
2024/01/25 06:36:46;;;;;;;1.13;0.73;;;;;;;6.23;74.38;99933.97;5076073;28;20047;-71
2024/01/25 06:39:15;;;;;;;0.32;0.32;;;;;;;6.14;74.54;99932.91;5074814;28;20471;-71
2024/01/25 06:41:44;;;;;;;0.70;0.70;;;;;;;6.14;74.56;99933.78;5091651;28;20048;-71
2024/01/25 06:44:13;;;;;;;0.73;0.50;;;;;;;6.16;74.99;99934.66;5074704;28;20071;-71
2024/01/25 06:46:41;;;;;;;0.50;0.50;;;;;;;6.18;74.54;99929.59;5075613;28;20404;-71
2024/01/25 06:49:10;;;;;;;0.73;0.73;;;;;;;6.14;74.50;99923.63;5075169;28;20056;-72
2024/01/25 06:51:39;;;;;;;2.17;1.02;;;;;;;6.11;74.62;99915.09;5074495;28;20040;-71
2024/01/25 06:54:09;;;;;;;0.57;0.57;;;;;;;6.21;74.01;99930.53;5075952;28;20509;-71
2024/01/25 06:56:38;;;;;;;0.30;0.30;;;;;;;6.25;74.11;99939.91;5075808;28;20137;-72
2024/01/25 06:59:07;;;;;;;1.67;1.57;;;;;;;6.29;74.21;99941.66;5075644;28;20052;-71
2024/01/25 07:01:36;;;;;;;0.80;0.68;;;;;;;6.30;74.00;99953.53;5075280;28;20040;-71
2024/01/25 07:04:06;;;;;;;3.10;0.85;;;;;;;6.37;73.77;99937.63;5075224;28;20106;-71
2024/01/25 07:06:36;;;;;;;0.40;0.40;;;;;;;6.44;73.82;99934.38;5087981;28;20042;-71
2024/01/25 07:09:04;;;;;;;1.03;0.83;;;;;;;6.56;73.49;99943.91;5095719;28;20405;-71
2024/01/25 07:11:35;;;;;;;2.13;1.85;;;;;;;6.66;73.67;99946.66;5095599;28;20054;-71
2024/01/25 07:14:04;;;;;;;0.30;0.30;;;;;;;6.79;73.10;99946.88;5077484;28;20139;-72
2024/01/25 07:16:33;;;;;;;0.73;0.73;;;;;;;6.88;72.26;99947.03;5095671;28;20097;-71
2024/01/25 07:19:03;;;;;;;0.93;0.93;;;;;;;6.93;72.59;99956.47;5095174;28;20036;-71
2024/01/25 07:21:33;;;;;;;0.35;0.35;;;;;;;6.86;71.78;99938.56;5095512;28;20145;-71
2024/01/25 07:24:05;;;;;;;0.65;0.65;;;;;;;6.84;71.94;99945.28;5093937;28;20072;-70
2024/01/25 07:26:36;;;;;;;0.80;0.80;;;;;;;6.87;72.31;99947.84;5077194;28;20047;-71
2024/01/25 07:29:05;;;;;;;0.13;0.13;;;;;;;6.88;72.13;99947.03;5095367;28;20047;-71
2024/01/25 07:31:34;;;;;;;0.43;0.43;;;;;;;6.91;71.34;99957.25;5095570;28;20486;-71
2024/01/25 07:34:03;;;;;;;0.90;0.75;;;;;;;6.94;72.30;99952.22;5095129;28;20047;-71
2024/01/25 07:36:32;;;;;;;0.47;0.47;;;;;;;6.91;71.74;99952.19;5094661;28;20044;-71
2024/01/25 07:39:02;;;;;;;3.35;1.33;;;;;;;6.88;71.76;99952.13;5095466;28;20047;-71
2024/01/25 07:41:31;;;;;;;0.90;0.90;;;;;;;6.83;71.87;99948.63;5094637;28;20498;-71
2024/01/25 07:44:01;;;;;;;1.27;0.98;;;;;;;6.80;72.26;99958.72;5094931;28;20040;-70
2024/01/25 07:46:30;;;;;;;0.35;0.35;;;;;;;6.76;72.23;99957.81;5094710;28;20032;-70
2024/01/25 07:49:00;;;;;;;3.53;0.77;;;;;;;6.83;72.11;99938.50;5094564;28;20037;-71
2024/01/25 07:51:29;;;;;;;0.30;0.30;;;;;;;6.92;71.74;99941.19;5095182;28;20032;-71
2024/01/25 07:53:57;;;;;;;0.17;0.17;;;;;;;6.97;71.28;99932.84;5094852;28;20071;-71
2024/01/25 07:56:26;;;;;;;0.43;0.43;;;;;;;7.03;71.21;99937.19;5094894;28;20032;-71
2024/01/25 07:58:55;;;;;;;4.38;1.75;;;;;;;7.01;70.85;99938.81;5094732;28;20036;-70
2024/01/25 08:01:26;;;;;;;1.23;0.90;;;;;;;7.10;69.83;99939.00;5094049;28;20498;-71
2024/01/25 08:03:55;;;;;;;1.85;0.73;;;;;;;7.10;69.62;99939.00;5094216;28;20146;-70
2024/01/25 08:06:24;;;;;;;0.30;0.30;;;;;;;7.14;69.37;99941.59;5094438;28;20056;-71
2024/01/25 08:08:53;;;;;;;0.73;0.67;;;;;;;7.18;69.38;99938.28;5092640;28;20044;-70
2024/01/25 08:11:22;;;;;;;1.13;1.03;;;;;;;7.19;69.65;99949.28;5093226;28;20093;-71
2024/01/25 08:13:51;;;;;;;0.28;0.28;;;;;;;7.13;69.83;99944.09;5094569;28;20094;-71
2024/01/25 08:16:20;;;;;;;0.70;0.70;;;;;;;7.09;69.77;99955.91;5094466;28;20055;-71
2024/01/25 08:18:51;;;;;;;15.38;0.82;;;;;;;7.11;69.67;99945.75;5093173;28;20658;-71
2024/01/25 08:21:19;;;;;;;0.60;0.60;;;;;;;7.16;69.83;99959.38;5093979;28;20047;-72
2024/01/25 08:23:48;;;;;;;0.57;0.57;;;;;;;7.25;69.87;99949.38;5093844;28;20127;-71
2024/01/25 08:26:17;;;;;;;1.30;1.23;;;;;;;7.27;69.18;99962.97;5094002;28;20040;-71
2024/01/25 08:28:47;;;;;;;0.40;0.40;;;;;;;7.22;69.07;99956.97;5093926;28;20044;-71
2024/01/25 08:31:16;;;;;;;0.40;0.40;;;;;;;7.15;70.03;99947.53;5094262;28;20040;-71
2024/01/25 08:33:47;;;;;;;0.23;0.23;;;;;;;7.17;69.43;99934.06;5094178;28;20051;-70
2024/01/25 08:36:20;;;;;;;2.03;1.13;;;;;;;7.19;70.14;99939.16;5093730;28;20052;-70
2024/01/25 08:38:49;;;;;;;0.30;0.30;;;;;;;7.31;69.31;99932.59;5094154;28;20054;-70
2024/01/25 08:41:17;;;;;;;0.50;0.50;;;;;;;7.25;69.24;99906.22;5094091;28;20043;-71
2024/01/25 08:43:46;;;;;;;0.43;0.43;;;;;;;7.38;69.21;99933.53;5094076;28;20371;-71
2024/01/25 08:46:15;;;;;;;1.30;1.07;;;;;;;7.43;69.99;99942.09;5093723;28;20139;-71
2024/01/25 08:48:44;;;;;;;;;;;;;;;7.45;69.79;99932.81;5094048;28;20088;-71
2024/01/25 08:51:13;;;;;;;1.70;1.53;;;;;;;7.48;69.57;99942.16;5093476;28;19920;-72
2024/01/25 08:53:44;;;;;;;1.43;1.13;;;;;;;7.49;69.90;99934.53;5093629;28;20037;-72
2024/01/25 08:56:12;;;;;;;0.50;0.50;;;;;;;7.45;69.92;99917.56;5093990;28;20044;-71
2024/01/25 08:58:41;;;;;;;0.30;0.30;;;;;;;7.58;69.50;99938.94;5094194;28;20119;-69
2024/01/25 09:01:11;;;;;;;0.65;0.65;;;;;;;7.64;69.91;99942.41;5094332;28;20048;-68
2024/01/25 09:03:40;;;;;;;0.50;0.50;;;;;;;7.76;69.56;99954.44;5093438;28;20058;-72
2024/01/25 09:06:09;;;;;;;0.40;0.40;;;;;;;7.87;68.87;99958.84;5093683;28;20040;-71
2024/01/25 09:08:38;;;;;;;1.50;0.93;;;;;;;7.94;68.11;99958.09;5093762;28;20036;-71
2024/01/25 09:11:08;;;;;;;1.02;0.95;;;;;;;7.86;68.46;99962.22;5093684;28;20093;-70
2024/01/25 09:13:47;;;;;;;0.30;0.30;;;;;;;7.93;67.49;99973.31;5096428;28;20379;-70
2024/01/25 09:16:19;;;;;;;0.60;0.60;;;;;;;8.13;68.21;99982.09;5097747;28;20067;-71
2024/01/25 09:18:48;;;;;;;2.28;0.90;;;;;;;8.37;66.76;99991.78;5097539;28;20048;-70
2024/01/25 09:21:17;;;;;;;0.93;0.93;;;;;;;8.37;67.46;99991.78;5097758;28;20036;-70
2024/01/25 09:23:46;;;;;;;0.30;0.30;;;;;;;8.48;67.07;100000.38;5097580;28;20424;-71
2024/01/25 09:26:16;;;;;;;0.57;0.57;;;;;;;8.70;66.49;99999.81;5097728;28;20047;-71
2024/01/25 09:28:45;;;;;;;0.30;0.30;;;;;;;8.92;65.89;99999.22;5097501;28;20044;-71
2024/01/25 09:31:14;;;;;;;0.85;0.85;;;;;;;9.17;65.01;100013.91;5097655;28;20437;-71
2024/01/25 09:33:43;;;;;;;0.73;0.73;;;;;;;9.38;64.87;100011.56;5097741;28;20040;-72
2024/01/25 09:36:13;;;;;;;0.30;0.30;;;;;;;9.52;64.90;100013.41;5097111;28;20127;-72
2024/01/25 09:38:41;;;;;;;0.73;0.73;;;;;;;9.73;64.09;100013.56;5097412;28;20157;-71
2024/01/25 09:41:10;;;;;;;8.55;1.40;;;;;;;9.53;64.05;99966.66;5097055;28;20085;-72
2024/01/25 09:43:42;;;;;;;0.50;0.50;;;;;;;10.04;63.18;100016.34;5096914;28;20047;-71
2024/01/25 09:46:16;;;;;;;0.57;0.57;;;;;;;10.18;62.32;100019.03;5097856;28;20516;-71
2024/01/25 09:48:47;;;;;;;6.20;1.13;;;;;;;10.29;61.69;100027.59;5096150;28;20090;-71
2024/01/25 09:51:18;;;;;;;0.47;0.47;;;;;;;10.26;61.39;100012.28;5097308;28;20125;-71
2024/01/25 09:53:50;;;;;;;0.40;0.40;;;;;;;10.20;60.06;100019.88;5096741;28;20048;-71
2024/01/25 09:56:22;;;;;;;3.75;0.85;;;;;;;9.97;59.95;100018.84;5097482;28;20048;-71
2024/01/25 09:58:54;;;;;;;0.40;0.40;;;;;;;9.82;60.33;100018.72;5097131;28;20037;-71
2024/01/25 10:01:23;;;;;;;0.45;0.45;;;;;;;9.74;60.18;100021.22;5097494;28;20047;-70
2024/01/25 10:03:52;;;;;;;11.57;2.63;;;;;;;9.61;60.36;100014.31;5096535;28;20044;-71
2024/01/25 10:06:21;;;;;;;9.02;2.30;;;;;;;9.60;60.38;100037.25;5096960;28;20281;-70
2024/01/25 10:08:50;;;;;;;0.30;0.30;;;;;;;9.52;61.08;100023.59;5096799;28;20097;-71
2024/01/25 10:11:19;;;;;;;0.73;0.73;;;;;;;9.52;60.91;100036.31;5095573;28;20363;-71
2024/01/25 10:13:50;;;;;;;0.45;0.45;;;;;;;9.47;61.35;100025.22;5096781;28;20046;-71
2024/01/25 10:16:21;;;;;;;0.75;0.75;;;;;;;9.47;61.02;100031.19;5096785;28;20078;-71
2024/01/25 10:18:51;;;;;;;0.30;0.30;;;;;;;9.42;61.02;100020.97;5095542;28;20036;-71
2024/01/25 10:21:21;;;;;;;2.33;1.25;;;;;;;9.42;61.01;100017.56;5096666;28;20139;-71
2024/01/25 10:23:51;;;;;;;0.30;0.30;;;;;;;9.36;60.37;100025.97;5096260;28;20028;-71
2024/01/25 10:26:20;;;;;;;1.35;0.93;;;;;;;9.33;60.43;100032.75;5096319;28;20376;-71
2024/01/25 10:28:53;;;;;;;4.22;1.58;;;;;;;9.37;60.33;100017.50;5096578;28;20054;-71
2024/01/25 10:31:32;;;;;;;0.20;0.20;;;;;;;9.45;59.67;100023.50;5095465;28;20040;-71
2024/01/25 10:34:01;;;;;;;0.73;0.73;;;;;;;9.38;59.27;100026.84;5096154;28;20051;-71
2024/01/25 10:36:31;;;;;;;0.30;0.30;;;;;;;9.34;59.35;100027.66;5095047;28;20405;-71
2024/01/25 10:39:05;;;;;;;2.05;1.48;;;;;;;9.31;59.08;100019.13;5096186;28;20491;-71
2024/01/25 10:41:35;;;;;;;0.50;0.50;;;;;;;9.25;59.60;100019.06;5096089;28;20055;-72
2024/01/25 10:44:06;;;;;;;0.30;0.30;;;;;;;9.11;58.88;100016.41;5096122;28;20513;-71
2024/01/25 10:46:38;;;;;;;0.55;0.55;;;;;;;9.12;59.59;100023.19;5094984;28;20048;-71
2024/01/25 10:49:09;;;;;;;10.07;0.95;;;;;;;9.11;59.21;100013.84;5096096;28;20040;-71
2024/01/25 10:51:39;;;;;;;0.40;0.40;;;;;;;9.09;59.54;100009.59;5095880;28;20482;-71
2024/01/25 10:54:08;;;;;;;0.38;0.38;;;;;;;9.04;59.95;100014.63;5095925;28;20431;-71
2024/01/25 10:56:38;;;;;;;0.30;0.30;;;;;;;9.03;60.03;100018.00;5096150;28;20394;-71
2024/01/25 10:59:08;;;;;;;7.53;1.38;;;;;;;9.02;59.39;100001.00;5095442;28;20048;-71
2024/01/25 11:01:39;;;;;;;0.73;0.65;;;;;;;9.00;59.60;100007.78;5096075;28;20044;-71
2024/01/25 11:04:13;;;;;;;2.15;1.17;;;;;;;8.96;59.81;100016.22;5094457;28;20432;-71
2024/01/25 11:06:44;;;;;;;0.30;0.30;;;;;;;8.91;60.24;100010.22;5095602;28;20067;-71
2024/01/25 11:09:19;;;;;;;0.82;0.82;;;;;;;8.87;59.92;100016.13;5095871;28;20040;-71
2024/01/25 11:11:50;;;;;;;0.30;0.30;;;;;;;8.85;60.11;100015.28;5092294;28;20037;-72
2024/01/25 11:14:21;;;;;;;0.47;0.43;;;;;;;8.69;59.76;99995.53;5085150;28;20040;-71
2024/01/25 11:16:51;;;;;;;0.30;0.30;;;;;;;8.77;59.71;100015.19;5082937;28;20041;-71
2024/01/25 11:19:23;;;;;;;0.95;0.95;;;;;;;8.74;59.40;100004.94;5074915;28;20052;-71
2024/01/25 11:21:53;;;;;;;0.60;0.55;;;;;;;8.71;60.00;100010.00;5075362;28;20117;-71
2024/01/25 11:24:25;;;;;;;1.08;0.98;;;;;;;8.70;60.12;100008.31;5075514;28;20044;-71
2024/01/25 11:26:55;;;;;;;0.80;0.80;;;;;;;8.69;59.66;100000.63;5074850;28;20085;-72
2024/01/25 11:29:25;;;;;;;0.77;0.77;;;;;;;8.68;59.72;100009.13;5075386;28;20037;-72
2024/01/25 11:31:56;;;;;;;1.13;1.05;;;;;;;8.69;59.86;100008.25;5075079;28;20102;-71
2024/01/25 11:34:24;;;;;;;0.30;0.30;;;;;;;8.63;59.88;100010.75;5074701;28;20048;-71
2024/01/25 11:36:53;;;;;;;0.75;0.75;;;;;;;8.61;60.24;100007.34;5073925;28;20045;-71
2024/01/25 11:39:22;;;;;;;0.40;0.40;;;;;;;8.60;60.36;100010.72;5074698;28;20036;-71
2024/01/25 11:41:53;;;;;;;0.50;0.43;;;;;;;8.57;60.14;100015.75;5074335;28;20044;-71
2024/01/25 11:44:24;;;;;;;1.08;1.08;;;;;;;8.53;59.59;99993.66;5073914;28;20047;-71
2024/01/25 11:46:56;;;;;;;0.30;0.30;;;;;;;8.58;60.06;99997.13;5072850;28;20075;-72
2024/01/25 11:49:26;;;;;;;1.27;1.00;;;;;;;8.47;59.72;99984.25;5074487;28;20049;-71
2024/01/25 11:51:55;;;;;;;3.08;1.98;;;;;;;8.55;59.41;100008.09;5074700;28;20036;-71